Latest Coastal Weather Observations for Geelong Racecourse

IDV60701

Issued at 2:25 am EST Tuesday 29 July 2014 (issued every 10 minutes, with the page automatically refreshed every 10 minutes)

About coastal observations | Map of coastal stations | Coastal observations for VIC | Marine services | Other Formats
Station Details ID: 087184 Name: GEELONG RACECOURSE Lat: -38.17 Lon: 144.38 Height: 12.9 m
Data from the previous 72 hours. | See also: Recent months at Geelong Racecourse
Date/Time
EST
Temp

°C
Wind Pressure Rain
since 9am
mm
Weather Cloud Vis
km
Sea
Height
m
Swell
Dir
 
Speed
knots
Gust
knots
hPa Trend Height
m
Period
s
Dir
29/02:00am 12.1 NNE 6 9 1009.1 - 0.0 - - - - - - -
29/01:30am 11.7 NNE 4 8 1009.6 - 0.0 - - - - - - -
29/01:00am 12.3 NNE 6 10 1009.9 - 0.0 - - - - - - -
29/12:30am 11.7 NNE 5 8 1010.1 - 0.0 - - - - - - -
29/12:00am 11.9 NNE 6 9 1010.5 - 0.0 - - - - - - -
 
Date/Time
EST
Temp

°C
Wind Pressure Rain
since 9am
mm
Weather Cloud Vis
km
Sea
Height
m
Swell
Dir
 
Speed
knots
Gust
knots
hPa Trend Height
m
Period
s
Dir
28/11:30pm 12.9 N 8 15 1011.0 - 0.0 - - - - - - -
28/11:00pm 13.2 N 10 15 1011.1 - 0.0 - - - - - - -
28/10:30pm 13.4 N 8 13 1011.2 - 0.0 - - - - - - -
28/10:00pm 13.3 N 7 12 1011.3 - 0.0 - - - - - - -
28/09:30pm 11.9 NNE 5 7 1011.2 - 0.0 - - - - - - -
28/09:00pm 12.2 NE 7 12 1011.1 - 0.0 - - - - - - -
28/08:30pm 12.0 NE 6 8 1011.2 - 0.0 - - - - - - -
28/08:00pm 12.7 NNE 5 7 1011.5 - 0.0 - - - - - - -
28/07:30pm 13.1 N 4 6 1011.5 - 0.0 - - - - - - -
28/07:00pm 14.5 N 7 15 1011.3 - 0.0 - - - - - - -
28/06:30pm 14.4 NE 6 11 1011.2 - 0.0 - - - - - - -
28/06:00pm 14.3 NNE 6 9 1011.3 - 0.0 - - - - - - -
28/05:30pm 15.1 NNW 8 13 1010.6 - 0.0 - - - - - - -
28/05:00pm 15.7 NW 13 22 1010.3 - 0.0 - - - - - - -
28/04:30pm 16.2 NW 17 29 1010.7 - 0.0 - - - - - - -
28/04:27pm 16.3 NW 17 29 1010.7 - 0.0 - - - - - - -
28/04:00pm 16.7 NW 16 25 1010.8 - 0.0 - - - - - - -
28/03:30pm 16.8 WNW 13 20 1011.0 - 0.0 - - - - - - -
28/03:00pm 17.4 NW 14 20 1011.1 - 0.0 - - - - - - -
28/02:30pm 17.3 NNW 13 22 1010.9 - 0.0 - - - - - - -
28/02:00pm 17.7 NW 12 22 1011.1 - 0.0 - - - - - - -
28/01:30pm 17.8 NW 13 22 1011.7 - 0.0 - - - - - - -
28/01:00pm 17.2 NW 14 19 1012.1 - 0.0 - - - - - - -
28/12:30pm 17.2 NW 12 18 1012.8 - 0.0 - - - - - - -
28/12:00pm 16.9 NW 14 20 1013.3 - 0.0 - - - - - - -
28/11:30am 17.0 NW 15 19 1013.7 - 0.0 - - - - - - -
28/11:28am 17.1 NW 15 19 1013.7 - 0.0 - - - - - - -
28/11:00am 16.0 NNW 3 4 1014.1 - 0.0 - - - - - - -
28/10:30am 14.3 NNE 7 11 1014.4 - 0.0 - - - - - - -
28/10:00am 13.5 N 7 11 1014.5 - 0.0 - - - - - - -
28/09:30am 12.5 N 8 12 1014.5 - 0.0 - - - - - - -
28/09:00am 11.4 NNE 6 9 1014.7 - 0.0 - - - - - - -
28/08:30am 10.4 NNE 7 10 1014.7 - 0.0 - - - - - - -
28/08:00am 9.7 NNE 6 9 1014.9 - 0.0 - - - - - - -
28/07:30am 9.9 N 7 10 1014.8 - 0.0 - - - - - - -
28/07:00am 10.1 N 6 8 1014.9 - 0.0 - - - - - - -
28/06:30am 10.0 N 5 7 1014.9 - 0.0 - - - - - - -
28/06:00am 9.8 N 4 6 1014.8 - 0.0 - - - - - - -
28/05:30am 10.4 N 7 10 1014.7 - 0.0 - - - - - - -
28/05:00am 10.5 N 7 11 1014.8 - 0.0 - - - - - - -
28/04:30am 9.5 N 4 6 1015.1 - 0.0 - - - - - - -
28/04:00am 10.3 N 5 9 1015.4 - 0.0 - - - - - - -
28/03:30am 9.8 NNE 6 9 1015.6 - 0.0 - - - - - - -
28/03:00am 9.5 NNE 5 7 1016.0 - 0.0 - - - - - - -
28/02:30am 9.4 NNE 5 8 1016.2 - 0.0 - - - - - - -
28/02:00am 9.3 NE 6 9 1016.5 - 0.0 - - - - - - -
28/01:30am 9.1 NNE 6 9 1016.7 - 0.0 - - - - - - -
28/01:00am 9.4 N 5 7 1017.1 - 0.0 - - - - - - -
28/12:30am 9.3 N 7 12 1017.3 - 0.0 - - - - - - -
28/12:00am 9.5 NNE 7 11 1017.6 - 0.0 - - - - - - -
 
Date/Time
EST
Temp

°C
Wind Pressure Rain
since 9am
mm
Weather Cloud Vis
km
Sea
Height
m
Swell
Dir
 
Speed
knots
Gust
knots
hPa Trend Height
m
Period
s
Dir
27/11:30pm 9.7 NNE 8 12 1018.0 - 0.0 - - - - - - -
27/11:00pm 9.6 NNE 9 14 1018.3 - 0.0 - - - - - - -
27/10:30pm 9.7 NNE 8 13 1018.6 - 0.0 - - - - - - -
27/10:00pm 9.9 NNE 7 10 1018.9 - 0.0 - - - - - - -
27/09:30pm 10.1 NNE 5 7 1019.2 - 0.0 - - - - - - -
27/09:00pm 9.4 NE 4 6 1019.3 - 0.0 - - - - - - -
27/08:30pm 10.0 NNE 5 7 1019.3 - 0.0 - - - - - - -
27/08:00pm 10.7 NNE 6 8 1019.4 - 0.0 - - - - - - -
27/07:30pm 10.9 NNE 4 6 1019.7 - 0.0 - - - - - - -
27/07:00pm 12.0 N 5 7 1019.8 - 0.0 - - - - - - -
27/06:30pm 12.6 N 6 8 1019.8 - 0.0 - - - - - - -
27/06:00pm 13.1 N 6 8 1019.5 - 0.0 - - - - - - -
27/05:30pm 13.5 N 6 9 1019.4 - 0.0 - - - - - - -
27/05:00pm 14.2 N 8 11 1019.1 - 0.0 - - - - - - -
27/04:30pm 14.5 N 8 13 1019.3 - 0.0 - - - - - - -
27/04:00pm 14.6 NNW 9 16 1019.6 - 0.0 - - - - - - -
27/03:30pm 15.3 NNW 12 20 1019.8 - 0.0 - - - - - - -
27/03:00pm 14.9 NNW 13 19 1019.9 - 0.0 - - - - - - -
27/02:30pm 15.7 NNW 11 17 1019.8 - 0.0 - - - - - - -
27/02:00pm 15.3 NNW 12 18 1019.9 - 0.0 - - - - - - -
27/01:30pm 15.1 NW 12 19 1020.2 - 0.0 - - - - - - -
27/01:00pm 16.0 NW 14 19 1020.7 - 0.0 - - - - - - -
27/12:30pm 15.8 NW 10 16 1021.1 - 0.0 - - - - - - -
27/12:00pm 15.5 NNW 10 17 1021.6 - 0.0 - - - - - - -
27/11:30am 14.6 NNW 12 16 1022.3 - 0.0 - - - - - - -
27/11:00am 13.9 N 6 11 1022.6 - 0.0 - - - - - - -
27/10:30am 12.1 NE 4 5 1023.4 - 0.0 - - - - - - -
27/10:00am 11.7 NE 3 6 1023.6 - 0.0 - - - - - - -
27/09:30am 10.5 N 3 4 1024.2 - 0.0 - - - - - - -
27/09:00am 8.7 N 3 4 1024.4 - 0.2 - - - - - - -
27/08:30am 7.3 N 4 5 1024.3 - 0.2 - - - - - - -
27/08:00am 5.8 N 4 5 1024.3 - 0.2 - - - - - - -
27/07:30am 5.7 NNW 4 5 1024.1 - 0.2 - - - - - - -
27/07:00am 5.6 N 3 4 1023.9 - 0.2 - - - - - - -
27/06:30am 5.6 NNW 3 4 1023.7 - 0.2 - - - - - - -
27/06:00am 5.7 N 1 2 1023.8 - 0.2 - - - - - - -
27/05:30am 5.9 N 2 2 1024.0 - 0.2 - - - - - - -
27/05:00am 6.1 NNW 3 5 1024.2 - 0.2 - - - - - - -
27/04:30am 6.4 NW 4 5 1024.1 - 0.2 - - - - - - -
27/04:00am 5.8 NW 4 5 1024.3 - 0.2 - - - - - - -
27/03:30am 6.4 NNW 2 3 1024.5 - 0.2 - - - - - - -
27/03:00am 6.0 WNW 2 2 1024.8 - 0.2 - - - - - - -
27/02:30am 6.2 NW 4 5 1024.7 - 0.2 - - - - - - -
27/02:00am 6.3 NW 4 4 1024.9 - 0.2 - - - - - - -
27/01:30am 6.6 NW 2 3 1025.0 - 0.2 - - - - - - -
27/01:00am 7.1 NNW 4 5 1025.2 - 0.2 - - - - - - -
27/12:30am 7.9 NW 3 4 1025.2 - 0.2 - - - - - - -
27/12:00am 8.6 NW 5 8 1025.5 - 0.2 - - - - - - -
 
Date/Time
EST
Temp

°C
Wind Pressure Rain
since 9am
mm
Weather Cloud Vis
km
Sea
Height
m
Swell
Dir
 
Speed
knots
Gust
knots
hPa Trend Height
m
Period
s
Dir
26/11:30pm 8.8 WNW 7 10 1025.5 - 0.2 - - - - - - -
26/11:00pm 9.1 WNW 4 8 1025.4 - 0.2 - - - - - - -
26/10:30pm 9.3 WNW 6 9 1025.5 - 0.2 - - - - - - -
26/10:00pm 10.2 NW 5 8 1025.7 - 0.2 - - - - - - -
26/09:30pm 11.1 WNW 5 9 1025.2 - 0.2 - - - - - - -
26/09:00pm 11.7 W 7 12 1025.2 - 0.2 - - - - - - -
26/08:30pm 12.0 W 7 11 1025.0 - 0.2 - - - - - - -
26/08:00pm 12.1 W 8 13 1025.0 - 0.2 - - - - - - -
26/07:30pm 12.2 W 5 8 1024.8 - 0.2 - - - - - - -
26/07:00pm 12.0 WNW 3 6 1024.6 - 0.2 - - - - - - -
26/06:30pm 12.2 W 5 8 1024.3 - 0.2 - - - - - - -
26/06:00pm 12.3 W 6 9 1024.0 - 0.2 - - - - - - -
26/05:30pm 12.1 W 7 10 1023.7 - 0.2 - - - - - - -
26/05:00pm 12.2 W 11 17 1023.4 - 0.2 - - - - - - -
26/04:30pm 12.3 W 10 15 1023.2 - 0.2 - - - - - - -
26/04:00pm 12.5 W 11 18 1023.2 - 0.2 - - - - - - -
26/03:30pm 12.4 W 7 10 1023.0 - 0.0 - - - - - - -
26/03:00pm 12.8 W 11 14 1022.8 - 0.0 - - - - - - -
26/02:30pm 13.1 W 10 17 1022.4 - 0.0 - - - - - - -
26/02:00pm 13.7 W 10 16 1022.1 - 0.0 - - - - - - -
26/01:30pm 13.9 W 10 16 1022.1 - 0.0 - - - - - - -
26/01:00pm 13.0 W 10 16 1022.3 - 0.0 - - - - - - -
26/12:30pm 13.1 WNW 12 16 1022.4 - 0.0 - - - - - - -
26/12:00pm 13.0 WNW 9 14 1022.6 - 0.0 - - - - - - -
26/11:30am 13.1 W 10 17 1023.0 - 0.0 - - - - - - -
26/11:00am 12.7 WNW 10 16 1023.0 - 0.0 - - - - - - -
26/10:30am 11.7 WNW 9 13 1023.0 - 0.0 - - - - - - -
26/10:00am 11.7 WNW 8 14 1022.9 - 0.0 - - - - - - -
26/09:30am 11.9 WNW 10 16 1022.8 - 0.0 - - - - - - -
26/09:00am 11.8 WNW 9 14 1022.5 - 0.0 - - - - - - -
26/08:30am 11.9 WNW 8 15 1022.1 - 0.0 - - - - - - -
26/08:00am 11.7 WNW 11 18 1021.5 - 0.0 - - - - - - -
26/07:30am 11.7 WNW 10 15 1021.3 - 0.0 - - - - - - -
26/07:00am 11.8 WNW 9 16 1021.1 - 0.0 - - - - - - -
26/06:30am 11.8 WNW 9 17 1020.7 - 0.0 - - - - - - -
26/06:00am 11.9 WNW 10 16 1020.3 - 0.0 - - - - - - -
26/05:30am 11.8 WNW 9 17 1020.1 - 0.0 - - - - - - -
26/05:00am 11.8 WNW 8 13 1019.9 - 0.0 - - - - - - -
26/04:30am 12.0 NW 10 13 1019.6 - 0.0 - - - - - - -
26/04:00am 12.2 WNW 11 15 1019.5 - 0.0 - - - - - - -
26/03:30am 12.1 NW 9 16 1019.4 - 0.0 - - - - - - -
26/03:00am 12.2 NW 8 12 1019.3 - 0.0 - - - - - - -
26/02:30am 11.8 NW 9 12 1019.3 - 0.0 - - - - - - -

Other Formats:

Comma delimited format used in spreadsheet applications
http://www.bom.gov.au/fwo/IDV60701/IDV60701.94857.axf

JavaScript Object Notation format (JSON) in row-major order
http://www.bom.gov.au/fwo/IDV60701/IDV60701.94857.json